sensor_id;sensor_type;location;lat;lon;timestamp;P1;durP1;ratioP1;P2;durP2;ratioP2
13651;SDS011;6899;51.546;6.912;2022-07-31T00:01:29;4.88;;;2.97;;
13651;SDS011;6899;51.546;6.912;2022-07-31T00:03:56;2.92;;;2.63;;
13651;SDS011;6899;51.546;6.912;2022-07-31T00:06:23;6.00;;;2.70;;
13651;SDS011;6899;51.546;6.912;2022-07-31T00:08:50;4.25;;;2.35;;
13651;SDS011;6899;51.546;6.912;2022-07-31T00:11:17;4.68;;;2.28;;
13651;SDS011;6899;51.546;6.912;2022-07-31T00:13:44;3.75;;;2.20;;
13651;SDS011;6899;51.546;6.912;2022-07-31T00:16:12;2.47;;;2.28;;
13651;SDS011;6899;51.546;6.912;2022-07-31T00:18:40;3.10;;;2.50;;
13651;SDS011;6899;51.546;6.912;2022-07-31T00:21:07;2.83;;;2.35;;
13651;SDS011;6899;51.546;6.912;2022-07-31T00:23:34;2.72;;;2.33;;
13651;SDS011;6899;51.546;6.912;2022-07-31T00:26:01;2.95;;;2.40;;
13651;SDS011;6899;51.546;6.912;2022-07-31T00:28:28;5.93;;;2.83;;
13651;SDS011;6899;51.546;6.912;2022-07-31T00:30:56;5.55;;;2.47;;
13651;SDS011;6899;51.546;6.912;2022-07-31T00:33:22;2.85;;;2.65;;
13651;SDS011;6899;51.546;6.912;2022-07-31T00:35:51;2.42;;;2.08;;
13651;SDS011;6899;51.546;6.912;2022-07-31T00:38:18;2.75;;;2.55;;
13651;SDS011;6899;51.546;6.912;2022-07-31T00:40:45;2.60;;;2.40;;
13651;SDS011;6899;51.546;6.912;2022-07-31T00:43:12;3.22;;;2.60;;
13651;SDS011;6899;51.546;6.912;2022-07-31T00:45:40;2.92;;;2.63;;
13651;SDS011;6899;51.546;6.912;2022-07-31T00:48:07;2.80;;;2.42;;
13651;SDS011;6899;51.546;6.912;2022-07-31T00:50:36;3.10;;;2.90;;
13651;SDS011;6899;51.546;6.912;2022-07-31T00:53:05;2.80;;;2.60;;
13651;SDS011;6899;51.546;6.912;2022-07-31T00:55:32;2.90;;;2.67;;
13651;SDS011;6899;51.546;6.912;2022-07-31T00:57:59;5.15;;;2.90;;
13651;SDS011;6899;51.546;6.912;2022-07-31T01:00:26;4.40;;;2.70;;
13651;SDS011;6899;51.546;6.912;2022-07-31T01:02:53;3.17;;;2.85;;
13651;SDS011;6899;51.546;6.912;2022-07-31T01:05:20;3.42;;;3.03;;
13651;SDS011;6899;51.546;6.912;2022-07-31T01:07:48;3.88;;;2.88;;
13651;SDS011;6899;51.546;6.912;2022-07-31T01:10:18;3.40;;;3.10;;
13651;SDS011;6899;51.546;6.912;2022-07-31T01:13:01;4.32;;;2.80;;
13651;SDS011;6899;51.546;6.912;2022-07-31T01:15:32;3.58;;;3.08;;
13651;SDS011;6899;51.546;6.912;2022-07-31T01:18:01;3.13;;;2.83;;
13651;SDS011;6899;51.546;6.912;2022-07-31T01:20:29;5.00;;;3.72;;
13651;SDS011;6899;51.546;6.912;2022-07-31T01:23:03;3.72;;;3.13;;
13651;SDS011;6899;51.546;6.912;2022-07-31T01:25:45;3.28;;;2.97;;
13651;SDS011;6899;51.546;6.912;2022-07-31T01:28:28;3.25;;;2.95;;
13651;SDS011;6899;51.546;6.912;2022-07-31T01:31:29;4.05;;;3.30;;
13651;SDS011;6899;51.546;6.912;2022-07-31T01:34:02;3.05;;;2.83;;
13651;SDS011;6899;51.546;6.912;2022-07-31T01:36:34;3.10;;;2.85;;
13651;SDS011;6899;51.546;6.912;2022-07-31T01:39:04;3.47;;;2.72;;
13651;SDS011;6899;51.546;6.912;2022-07-31T01:41:33;3.35;;;3.05;;
13651;SDS011;6899;51.546;6.912;2022-07-31T01:44:03;3.63;;;3.15;;
13651;SDS011;6899;51.546;6.912;2022-07-31T01:46:33;3.47;;;2.90;;
13651;SDS011;6899;51.546;6.912;2022-07-31T01:49:01;3.13;;;2.83;;
13651;SDS011;6899;51.546;6.912;2022-07-31T01:51:29;3.53;;;3.22;;
13651;SDS011;6899;51.546;6.912;2022-07-31T01:53:57;3.42;;;2.97;;
13651;SDS011;6899;51.546;6.912;2022-07-31T01:56:27;5.50;;;3.45;;
13651;SDS011;6899;51.546;6.912;2022-07-31T01:58:57;3.85;;;2.97;;
13651;SDS011;6899;51.546;6.912;2022-07-31T02:01:26;5.00;;;3.05;;
13651;SDS011;6899;51.546;6.912;2022-07-31T02:03:57;3.60;;;3.30;;
13651;SDS011;6899;51.546;6.912;2022-07-31T02:06:24;3.78;;;3.05;;
13651;SDS011;6899;51.546;6.912;2022-07-31T02:08:53;3.83;;;3.30;;
13651;SDS011;6899;51.546;6.912;2022-07-31T02:11:21;3.38;;;2.97;;
13651;SDS011;6899;51.546;6.912;2022-07-31T02:13:49;4.45;;;3.25;;
13651;SDS011;6899;51.546;6.912;2022-07-31T02:16:18;3.53;;;3.22;;
13651;SDS011;6899;51.546;6.912;2022-07-31T02:18:46;3.90;;;3.28;;
13651;SDS011;6899;51.546;6.912;2022-07-31T02:21:17;3.58;;;3.28;;
13651;SDS011;6899;51.546;6.912;2022-07-31T02:23:44;3.45;;;3.15;;
13651;SDS011;6899;51.546;6.912;2022-07-31T02:26:13;3.35;;;3.03;;
13651;SDS011;6899;51.546;6.912;2022-07-31T02:28:43;3.72;;;3.00;;
13651;SDS011;6899;51.546;6.912;2022-07-31T02:31:13;4.63;;;3.50;;
13651;SDS011;6899;51.546;6.912;2022-07-31T02:33:42;5.20;;;3.53;;
13651;SDS011;6899;51.546;6.912;2022-07-31T02:36:12;5.63;;;3.78;;
13651;SDS011;6899;51.546;6.912;2022-07-31T02:38:41;3.38;;;3.08;;
13651;SDS011;6899;51.546;6.912;2022-07-31T02:41:10;3.80;;;3.50;;
13651;SDS011;6899;51.546;6.912;2022-07-31T02:43:38;3.60;;;3.30;;
13651;SDS011;6899;51.546;6.912;2022-07-31T02:46:05;4.22;;;3.65;;
13651;SDS011;6899;51.546;6.912;2022-07-31T02:48:33;4.22;;;3.83;;
13651;SDS011;6899;51.546;6.912;2022-07-31T02:51:02;3.88;;;3.45;;
13651;SDS011;6899;51.546;6.912;2022-07-31T02:53:30;3.50;;;3.28;;
13651;SDS011;6899;51.546;6.912;2022-07-31T02:55:59;3.88;;;3.47;;
13651;SDS011;6899;51.546;6.912;2022-07-31T02:58:31;4.25;;;3.63;;
13651;SDS011;6899;51.546;6.912;2022-07-31T03:00:59;4.47;;;3.45;;
13651;SDS011;6899;51.546;6.912;2022-07-31T03:03:27;4.13;;;3.72;;
13651;SDS011;6899;51.546;6.912;2022-07-31T03:05:54;3.97;;;3.67;;
13651;SDS011;6899;51.546;6.912;2022-07-31T03:08:21;3.95;;;3.65;;
13651;SDS011;6899;51.546;6.912;2022-07-31T03:10:49;4.47;;;3.45;;
13651;SDS011;6899;51.546;6.912;2022-07-31T03:13:17;4.32;;;3.92;;
13651;SDS011;6899;51.546;6.912;2022-07-31T03:15:47;4.10;;;3.42;;
13651;SDS011;6899;51.546;6.912;2022-07-31T03:18:16;4.80;;;4.40;;
13651;SDS011;6899;51.546;6.912;2022-07-31T03:20:45;3.65;;;3.35;;
13651;SDS011;6899;51.546;6.912;2022-07-31T03:23:16;3.90;;;3.60;;
13651;SDS011;6899;51.546;6.912;2022-07-31T03:25:45;3.95;;;3.53;;
13651;SDS011;6899;51.546;6.912;2022-07-31T03:28:14;4.15;;;3.60;;
13651;SDS011;6899;51.546;6.912;2022-07-31T03:30:44;4.38;;;3.40;;
13651;SDS011;6899;51.546;6.912;2022-07-31T03:33:12;3.88;;;3.40;;
13651;SDS011;6899;51.546;6.912;2022-07-31T03:35:39;3.95;;;3.13;;
13651;SDS011;6899;51.546;6.912;2022-07-31T03:38:06;3.53;;;3.15;;
13651;SDS011;6899;51.546;6.912;2022-07-31T03:40:33;4.70;;;4.05;;
13651;SDS011;6899;51.546;6.912;2022-07-31T03:43:01;4.00;;;3.60;;
13651;SDS011;6899;51.546;6.912;2022-07-31T03:45:29;3.90;;;3.50;;
13651;SDS011;6899;51.546;6.912;2022-07-31T03:47:59;3.83;;;3.35;;
13651;SDS011;6899;51.546;6.912;2022-07-31T03:50:26;4.15;;;3.75;;
13651;SDS011;6899;51.546;6.912;2022-07-31T03:52:54;4.50;;;3.50;;
13651;SDS011;6899;51.546;6.912;2022-07-31T03:55:22;3.63;;;3.33;;
13651;SDS011;6899;51.546;6.912;2022-07-31T03:57:50;3.95;;;3.53;;
13651;SDS011;6899;51.546;6.912;2022-07-31T04:00:18;4.53;;;3.53;;
13651;SDS011;6899;51.546;6.912;2022-07-31T04:02:51;3.20;;;2.92;;
13651;SDS011;6899;51.546;6.912;2022-07-31T04:05:20;3.38;;;3.08;;
13651;SDS011;6899;51.546;6.912;2022-07-31T04:07:48;3.38;;;3.08;;
13651;SDS011;6899;51.546;6.912;2022-07-31T04:10:15;4.40;;;3.45;;
13651;SDS011;6899;51.546;6.912;2022-07-31T04:12:42;4.95;;;3.60;;
13651;SDS011;6899;51.546;6.912;2022-07-31T04:15:09;3.15;;;2.75;;
13651;SDS011;6899;51.546;6.912;2022-07-31T04:17:36;4.63;;;3.55;;
13651;SDS011;6899;51.546;6.912;2022-07-31T04:20:04;6.35;;;3.58;;
13651;SDS011;6899;51.546;6.912;2022-07-31T04:22:33;4.50;;;3.08;;
13651;SDS011;6899;51.546;6.912;2022-07-31T04:25:00;4.18;;;2.83;;
13651;SDS011;6899;51.546;6.912;2022-07-31T04:27:28;5.40;;;3.30;;
13651;SDS011;6899;51.546;6.912;2022-07-31T04:29:55;3.97;;;3.50;;
13651;SDS011;6899;51.546;6.912;2022-07-31T04:32:22;4.35;;;3.10;;
13651;SDS011;6899;51.546;6.912;2022-07-31T04:34:49;3.58;;;3.25;;
13651;SDS011;6899;51.546;6.912;2022-07-31T04:37:16;5.22;;;3.17;;
13651;SDS011;6899;51.546;6.912;2022-07-31T04:39:45;6.47;;;3.30;;
13651;SDS011;6899;51.546;6.912;2022-07-31T04:42:12;5.75;;;3.33;;
13651;SDS011;6899;51.546;6.912;2022-07-31T04:44:39;6.63;;;3.67;;
13651;SDS011;6899;51.546;6.912;2022-07-31T04:47:06;4.10;;;3.20;;
13651;SDS011;6899;51.546;6.912;2022-07-31T04:49:33;4.60;;;3.10;;
13651;SDS011;6899;51.546;6.912;2022-07-31T04:52:00;6.20;;;3.42;;
13651;SDS011;6899;51.546;6.912;2022-07-31T04:54:27;5.10;;;3.40;;
13651;SDS011;6899;51.546;6.912;2022-07-31T04:56:56;3.70;;;3.35;;
13651;SDS011;6899;51.546;6.912;2022-07-31T04:59:23;8.10;;;3.40;;
13651;SDS011;6899;51.546;6.912;2022-07-31T05:01:50;5.70;;;3.85;;
13651;SDS011;6899;51.546;6.912;2022-07-31T05:04:18;5.03;;;3.47;;
13651;SDS011;6899;51.546;6.912;2022-07-31T05:06:45;6.97;;;3.70;;
13651;SDS011;6899;51.546;6.912;2022-07-31T05:09:15;5.25;;;3.78;;
13651;SDS011;6899;51.546;6.912;2022-07-31T05:11:43;6.60;;;3.20;;
13651;SDS011;6899;51.546;6.912;2022-07-31T05:14:12;6.85;;;3.83;;
13651;SDS011;6899;51.546;6.912;2022-07-31T05:16:41;6.60;;;4.13;;
13651;SDS011;6899;51.546;6.912;2022-07-31T05:19:08;6.38;;;4.60;;
13651;SDS011;6899;51.546;6.912;2022-07-31T05:21:35;7.45;;;4.25;;
13651;SDS011;6899;51.546;6.912;2022-07-31T05:24:02;5.20;;;3.72;;
13651;SDS011;6899;51.546;6.912;2022-07-31T05:26:30;5.25;;;4.13;;
13651;SDS011;6899;51.546;6.912;2022-07-31T05:28:58;6.47;;;4.28;;
13651;SDS011;6899;51.546;6.912;2022-07-31T05:31:28;8.23;;;5.60;;
13651;SDS011;6899;51.546;6.912;2022-07-31T05:33:55;6.25;;;4.35;;
13651;SDS011;6899;51.546;6.912;2022-07-31T05:36:23;4.90;;;4.25;;
13651;SDS011;6899;51.546;6.912;2022-07-31T05:38:51;5.75;;;3.97;;
13651;SDS011;6899;51.546;6.912;2022-07-31T05:41:18;5.20;;;4.03;;
13651;SDS011;6899;51.546;6.912;2022-07-31T05:43:45;7.63;;;4.65;;
13651;SDS011;6899;51.546;6.912;2022-07-31T05:46:12;6.72;;;4.78;;
13651;SDS011;6899;51.546;6.912;2022-07-31T05:48:42;7.03;;;4.75;;
13651;SDS011;6899;51.546;6.912;2022-07-31T05:51:10;7.22;;;5.00;;
13651;SDS011;6899;51.546;6.912;2022-07-31T05:53:39;7.47;;;5.10;;
13651;SDS011;6899;51.546;6.912;2022-07-31T05:56:06;8.23;;;5.57;;
13651;SDS011;6899;51.546;6.912;2022-07-31T05:58:34;7.75;;;5.32;;
13651;SDS011;6899;51.546;6.912;2022-07-31T06:01:01;7.35;;;6.57;;
13651;SDS011;6899;51.546;6.912;2022-07-31T06:03:29;8.48;;;5.90;;
13651;SDS011;6899;51.546;6.912;2022-07-31T06:06:01;8.43;;;6.35;;
13651;SDS011;6899;51.546;6.912;2022-07-31T06:08:29;8.57;;;6.30;;
13651;SDS011;6899;51.546;6.912;2022-07-31T06:10:57;6.53;;;5.55;;
13651;SDS011;6899;51.546;6.912;2022-07-31T06:13:25;9.88;;;6.60;;
13651;SDS011;6899;51.546;6.912;2022-07-31T06:15:54;8.43;;;6.78;;
13651;SDS011;6899;51.546;6.912;2022-07-31T06:18:21;9.63;;;7.00;;
13651;SDS011;6899;51.546;6.912;2022-07-31T06:20:48;10.00;;;6.95;;
13651;SDS011;6899;51.546;6.912;2022-07-31T06:23:17;8.30;;;7.40;;
13651;SDS011;6899;51.546;6.912;2022-07-31T06:25:44;11.95;;;7.20;;
13651;SDS011;6899;51.546;6.912;2022-07-31T06:28:12;9.85;;;6.65;;
13651;SDS011;6899;51.546;6.912;2022-07-31T06:30:39;12.20;;;8.05;;
13651;SDS011;6899;51.546;6.912;2022-07-31T06:33:06;14.38;;;8.00;;
13651;SDS011;6899;51.546;6.912;2022-07-31T06:35:33;7.38;;;6.60;;
13651;SDS011;6899;51.546;6.912;2022-07-31T06:38:00;8.45;;;6.43;;
13651;SDS011;6899;51.546;6.912;2022-07-31T06:40:29;8.98;;;7.68;;
13651;SDS011;6899;51.546;6.912;2022-07-31T06:42:56;11.82;;;7.32;;
13651;SDS011;6899;51.546;6.912;2022-07-31T06:45:23;10.02;;;7.10;;
13651;SDS011;6899;51.546;6.912;2022-07-31T06:47:50;11.70;;;7.00;;
13651;SDS011;6899;51.546;6.912;2022-07-31T06:50:17;9.70;;;6.22;;
13651;SDS011;6899;51.546;6.912;2022-07-31T06:52:45;12.13;;;7.22;;
13651;SDS011;6899;51.546;6.912;2022-07-31T06:55:12;9.25;;;7.05;;
13651;SDS011;6899;51.546;6.912;2022-07-31T06:57:41;9.73;;;6.13;;
13651;SDS011;6899;51.546;6.912;2022-07-31T07:00:08;10.43;;;6.43;;
13651;SDS011;6899;51.546;6.912;2022-07-31T07:02:35;9.45;;;6.65;;
13651;SDS011;6899;51.546;6.912;2022-07-31T07:05:05;8.43;;;6.28;;
13651;SDS011;6899;51.546;6.912;2022-07-31T07:07:33;6.75;;;5.82;;
13651;SDS011;6899;51.546;6.912;2022-07-31T07:10:03;8.85;;;6.45;;
13651;SDS011;6899;51.546;6.912;2022-07-31T07:12:31;7.15;;;6.45;;
13651;SDS011;6899;51.546;6.912;2022-07-31T07:14:59;9.25;;;5.78;;
13651;SDS011;6899;51.546;6.912;2022-07-31T07:17:27;7.30;;;6.03;;
13651;SDS011;6899;51.546;6.912;2022-07-31T07:20:02;8.68;;;6.43;;
13651;SDS011;6899;51.546;6.912;2022-07-31T07:22:30;8.13;;;5.70;;
13651;SDS011;6899;51.546;6.912;2022-07-31T07:24:58;6.90;;;5.80;;
13651;SDS011;6899;51.546;6.912;2022-07-31T07:27:25;9.25;;;5.97;;
13651;SDS011;6899;51.546;6.912;2022-07-31T07:29:55;8.27;;;6.00;;
13651;SDS011;6899;51.546;6.912;2022-07-31T07:32:24;6.10;;;5.43;;
13651;SDS011;6899;51.546;6.912;2022-07-31T07:34:53;7.38;;;5.28;;
13651;SDS011;6899;51.546;6.912;2022-07-31T07:37:20;6.35;;;5.40;;
13651;SDS011;6899;51.546;6.912;2022-07-31T07:39:59;8.00;;;5.20;;
13651;SDS011;6899;51.546;6.912;2022-07-31T07:42:31;6.88;;;5.20;;
13651;SDS011;6899;51.546;6.912;2022-07-31T07:44:58;6.95;;;4.50;;
13651;SDS011;6899;51.546;6.912;2022-07-31T07:47:27;5.43;;;4.32;;
13651;SDS011;6899;51.546;6.912;2022-07-31T07:49:56;4.47;;;4.00;;
13651;SDS011;6899;51.546;6.912;2022-07-31T07:52:23;4.63;;;3.90;;
13651;SDS011;6899;51.546;6.912;2022-07-31T07:54:50;5.28;;;3.75;;
13651;SDS011;6899;51.546;6.912;2022-07-31T07:57:17;5.70;;;3.90;;
13651;SDS011;6899;51.546;6.912;2022-07-31T07:59:45;4.65;;;3.90;;
13651;SDS011;6899;51.546;6.912;2022-07-31T08:02:16;5.60;;;3.38;;
13651;SDS011;6899;51.546;6.912;2022-07-31T08:04:45;5.45;;;3.67;;
13651;SDS011;6899;51.546;6.912;2022-07-31T08:07:12;4.07;;;3.65;;
13651;SDS011;6899;51.546;6.912;2022-07-31T08:09:39;6.15;;;3.50;;
13651;SDS011;6899;51.546;6.912;2022-07-31T08:12:06;4.95;;;3.78;;
13651;SDS011;6899;51.546;6.912;2022-07-31T08:14:33;3.75;;;3.45;;
13651;SDS011;6899;51.546;6.912;2022-07-31T08:17:00;4.75;;;3.60;;
13651;SDS011;6899;51.546;6.912;2022-07-31T08:19:27;4.13;;;3.17;;
13651;SDS011;6899;51.546;6.912;2022-07-31T08:21:59;3.92;;;3.58;;
13651;SDS011;6899;51.546;6.912;2022-07-31T08:24:27;4.90;;;3.60;;
13651;SDS011;6899;51.546;6.912;2022-07-31T08:27:07;3.47;;;3.15;;
13651;SDS011;6899;51.546;6.912;2022-07-31T08:29:59;4.30;;;3.40;;
13651;SDS011;6899;51.546;6.912;2022-07-31T08:32:27;3.80;;;3.10;;
13651;SDS011;6899;51.546;6.912;2022-07-31T08:34:54;4.95;;;3.28;;
13651;SDS011;6899;51.546;6.912;2022-07-31T08:37:22;3.30;;;3.00;;
13651;SDS011;6899;51.546;6.912;2022-07-31T08:39:51;4.25;;;3.60;;
13651;SDS011;6899;51.546;6.912;2022-07-31T08:42:18;6.28;;;3.90;;
13651;SDS011;6899;51.546;6.912;2022-07-31T08:44:45;5.30;;;4.40;;
13651;SDS011;6899;51.546;6.912;2022-07-31T08:47:13;5.55;;;3.95;;
13651;SDS011;6899;51.546;6.912;2022-07-31T08:49:42;5.75;;;4.28;;
13651;SDS011;6899;51.546;6.912;2022-07-31T08:52:11;4.03;;;3.63;;
13651;SDS011;6899;51.546;6.912;2022-07-31T08:54:46;4.28;;;3.92;;
13651;SDS011;6899;51.546;6.912;2022-07-31T08:57:15;4.90;;;4.32;;
13651;SDS011;6899;51.546;6.912;2022-07-31T08:59:43;5.95;;;3.97;;
13651;SDS011;6899;51.546;6.912;2022-07-31T09:02:11;4.88;;;4.05;;
13651;SDS011;6899;51.546;6.912;2022-07-31T09:04:39;5.70;;;4.60;;
13651;SDS011;6899;51.546;6.912;2022-07-31T09:07:08;5.38;;;4.22;;
13651;SDS011;6899;51.546;6.912;2022-07-31T09:09:40;5.05;;;4.55;;
13651;SDS011;6899;51.546;6.912;2022-07-31T09:12:10;4.90;;;4.32;;
13651;SDS011;6899;51.546;6.912;2022-07-31T09:14:37;5.05;;;4.18;;
13651;SDS011;6899;51.546;6.912;2022-07-31T09:17:07;4.22;;;3.92;;
13651;SDS011;6899;51.546;6.912;2022-07-31T09:30:00;4.72;;;3.33;;
13651;SDS011;6899;51.546;6.912;2022-07-31T09:32:26;3.88;;;3.47;;
13651;SDS011;6899;51.546;6.912;2022-07-31T09:34:53;4.50;;;3.20;;
13651;SDS011;6899;51.546;6.912;2022-07-31T09:37:30;4.07;;;3.42;;
13651;SDS011;6899;51.546;6.912;2022-07-31T09:39:58;3.80;;;2.97;;
13651;SDS011;6899;51.546;6.912;2022-07-31T09:42:33;3.15;;;2.55;;
13651;SDS011;6899;51.546;6.912;2022-07-31T09:45:02;2.97;;;2.78;;
13651;SDS011;6899;51.546;6.912;2022-07-31T09:47:30;4.07;;;3.05;;
13651;SDS011;6899;51.546;6.912;2022-07-31T09:49:58;2.72;;;2.53;;
13651;SDS011;6899;51.546;6.912;2022-07-31T09:52:26;3.78;;;2.70;;
13651;SDS011;6899;51.546;6.912;2022-07-31T09:55:01;4.05;;;2.50;;
13651;SDS011;6899;51.546;6.912;2022-07-31T09:57:30;2.83;;;2.63;;
13651;SDS011;6899;51.546;6.912;2022-07-31T09:59:59;4.65;;;3.10;;
13651;SDS011;6899;51.546;6.912;2022-07-31T10:02:27;4.35;;;3.10;;
13651;SDS011;6899;51.546;6.912;2022-07-31T10:04:55;2.83;;;2.28;;
13651;SDS011;6899;51.546;6.912;2022-07-31T10:07:23;3.97;;;2.72;;
13651;SDS011;6899;51.546;6.912;2022-07-31T10:09:53;3.25;;;2.60;;
13651;SDS011;6899;51.546;6.912;2022-07-31T10:12:22;2.97;;;2.20;;
13651;SDS011;6899;51.546;6.912;2022-07-31T10:14:54;4.03;;;2.00;;
13651;SDS011;6899;51.546;6.912;2022-07-31T10:17:26;4.00;;;2.80;;
13651;SDS011;6899;51.546;6.912;2022-07-31T10:20:01;3.70;;;2.38;;
13651;SDS011;6899;51.546;6.912;2022-07-31T10:22:31;2.60;;;2.40;;
13651;SDS011;6899;51.546;6.912;2022-07-31T10:25:00;2.72;;;2.45;;
13651;SDS011;6899;51.546;6.912;2022-07-31T10:27:28;2.58;;;2.38;;
13651;SDS011;6899;51.546;6.912;2022-07-31T10:29:57;3.00;;;2.33;;
13651;SDS011;6899;51.546;6.912;2022-07-31T10:32:24;2.83;;;2.50;;
13651;SDS011;6899;51.546;6.912;2022-07-31T10:34:53;2.60;;;2.40;;
13651;SDS011;6899;51.546;6.912;2022-07-31T10:37:21;3.60;;;2.97;;
13651;SDS011;6899;51.546;6.912;2022-07-31T10:39:55;4.03;;;2.65;;
13651;SDS011;6899;51.546;6.912;2022-07-31T10:42:32;3.92;;;2.80;;
13651;SDS011;6899;51.546;6.912;2022-07-31T10:45:06;4.32;;;2.50;;
13651;SDS011;6899;51.546;6.912;2022-07-31T10:47:35;3.08;;;2.40;;
13651;SDS011;6899;51.546;6.912;2022-07-31T10:50:04;2.63;;;2.30;;
13651;SDS011;6899;51.546;6.912;2022-07-31T10:52:33;4.57;;;2.70;;
13651;SDS011;6899;51.546;6.912;2022-07-31T10:55:13;3.20;;;2.90;;
13651;SDS011;6899;51.546;6.912;2022-07-31T10:57:40;4.32;;;2.85;;
13651;SDS011;6899;51.546;6.912;2022-07-31T11:00:08;2.95;;;2.67;;
13651;SDS011;6899;51.546;6.912;2022-07-31T11:02:36;3.60;;;2.78;;
13651;SDS011;6899;51.546;6.912;2022-07-31T11:05:12;4.13;;;2.47;;
13651;SDS011;6899;51.546;6.912;2022-07-31T11:07:40;4.47;;;3.15;;
13651;SDS011;6899;51.546;6.912;2022-07-31T11:10:09;2.80;;;2.50;;
13651;SDS011;6899;51.546;6.912;2022-07-31T11:12:43;3.85;;;2.97;;
13651;SDS011;6899;51.546;6.912;2022-07-31T11:15:17;5.30;;;2.70;;
13651;SDS011;6899;51.546;6.912;2022-07-31T11:17:46;3.40;;;2.63;;
13651;SDS011;6899;51.546;6.912;2022-07-31T11:20:21;4.95;;;3.08;;
13651;SDS011;6899;51.546;6.912;2022-07-31T11:22:53;3.95;;;2.92;;
13651;SDS011;6899;51.546;6.912;2022-07-31T11:25:22;4.22;;;2.75;;
13651;SDS011;6899;51.546;6.912;2022-07-31T11:27:49;3.55;;;3.17;;
13651;SDS011;6899;51.546;6.912;2022-07-31T11:30:17;3.20;;;2.88;;
13651;SDS011;6899;51.546;6.912;2022-07-31T11:32:47;4.18;;;2.75;;
13651;SDS011;6899;51.546;6.912;2022-07-31T11:35:26;4.30;;;3.35;;
13651;SDS011;6899;51.546;6.912;2022-07-31T11:37:54;5.00;;;2.88;;
13651;SDS011;6899;51.546;6.912;2022-07-31T11:40:22;4.82;;;2.97;;
13651;SDS011;6899;51.546;6.912;2022-07-31T11:42:49;3.92;;;3.10;;
13651;SDS011;6899;51.546;6.912;2022-07-31T11:45:16;3.80;;;3.40;;
13651;SDS011;6899;51.546;6.912;2022-07-31T11:47:43;3.83;;;3.03;;
13651;SDS011;6899;51.546;6.912;2022-07-31T11:50:12;3.42;;;3.13;;
13651;SDS011;6899;51.546;6.912;2022-07-31T11:52:41;3.75;;;3.40;;
13651;SDS011;6899;51.546;6.912;2022-07-31T11:55:09;3.53;;;3.05;;
13651;SDS011;6899;51.546;6.912;2022-07-31T11:57:37;2.63;;;2.42;;
13651;SDS011;6899;51.546;6.912;2022-07-31T12:00:06;3.47;;;2.92;;
13651;SDS011;6899;51.546;6.912;2022-07-31T12:02:37;5.55;;;3.13;;
13651;SDS011;6899;51.546;6.912;2022-07-31T12:05:06;3.38;;;2.53;;
13651;SDS011;6899;51.546;6.912;2022-07-31T12:07:36;3.95;;;2.80;;
13651;SDS011;6899;51.546;6.912;2022-07-31T12:10:06;6.70;;;2.90;;
13651;SDS011;6899;51.546;6.912;2022-07-31T12:12:35;3.17;;;2.75;;
13651;SDS011;6899;51.546;6.912;2022-07-31T12:15:11;4.45;;;2.60;;
13651;SDS011;6899;51.546;6.912;2022-07-31T12:17:39;3.45;;;2.67;;
13651;SDS011;6899;51.546;6.912;2022-07-31T12:20:07;2.67;;;2.35;;
13651;SDS011;6899;51.546;6.912;2022-07-31T12:22:34;4.78;;;2.83;;
13651;SDS011;6899;51.546;6.912;2022-07-31T12:25:01;3.28;;;2.50;;
13651;SDS011;6899;51.546;6.912;2022-07-31T12:27:34;3.00;;;2.65;;
13651;SDS011;6899;51.546;6.912;2022-07-31T12:30:10;5.43;;;2.63;;
13651;SDS011;6899;51.546;6.912;2022-07-31T12:32:41;4.45;;;2.60;;
13651;SDS011;6899;51.546;6.912;2022-07-31T12:35:08;4.18;;;2.75;;
13651;SDS011;6899;51.546;6.912;2022-07-31T12:37:41;2.88;;;2.63;;
13651;SDS011;6899;51.546;6.912;2022-07-31T12:40:20;3.85;;;2.60;;
13651;SDS011;6899;51.546;6.912;2022-07-31T12:42:49;3.72;;;2.65;;
13651;SDS011;6899;51.546;6.912;2022-07-31T12:45:26;6.63;;;2.92;;
13651;SDS011;6899;51.546;6.912;2022-07-31T12:47:55;3.33;;;2.47;;
13651;SDS011;6899;51.546;6.912;2022-07-31T12:50:23;6.25;;;2.50;;
13651;SDS011;6899;51.546;6.912;2022-07-31T12:52:51;3.95;;;2.40;;
13651;SDS011;6899;51.546;6.912;2022-07-31T12:55:18;2.55;;;2.30;;
13651;SDS011;6899;51.546;6.912;2022-07-31T12:57:46;4.97;;;2.65;;
13651;SDS011;6899;51.546;6.912;2022-07-31T13:00:15;3.15;;;2.58;;
13651;SDS011;6899;51.546;6.912;2022-07-31T13:02:43;3.95;;;2.45;;
13651;SDS011;6899;51.546;6.912;2022-07-31T13:05:10;2.53;;;2.30;;
13651;SDS011;6899;51.546;6.912;2022-07-31T13:07:37;2.78;;;2.58;;
13651;SDS011;6899;51.546;6.912;2022-07-31T13:10:05;2.90;;;2.70;;
13651;SDS011;6899;51.546;6.912;2022-07-31T13:12:33;3.13;;;2.70;;
13651;SDS011;6899;51.546;6.912;2022-07-31T13:15:00;3.28;;;2.80;;
13651;SDS011;6899;51.546;6.912;2022-07-31T13:17:28;2.97;;;2.78;;
13651;SDS011;6899;51.546;6.912;2022-07-31T13:19:55;2.83;;;2.58;;
13651;SDS011;6899;51.546;6.912;2022-07-31T13:22:22;2.95;;;2.60;;
13651;SDS011;6899;51.546;6.912;2022-07-31T13:24:49;2.83;;;2.63;;
13651;SDS011;6899;51.546;6.912;2022-07-31T13:27:16;3.20;;;2.90;;
13651;SDS011;6899;51.546;6.912;2022-07-31T13:29:44;3.33;;;3.03;;
13651;SDS011;6899;51.546;6.912;2022-07-31T13:32:11;4.10;;;3.00;;
13651;SDS011;6899;51.546;6.912;2022-07-31T13:34:39;3.70;;;2.97;;
13651;SDS011;6899;51.546;6.912;2022-07-31T13:37:06;3.20;;;2.90;;
13651;SDS011;6899;51.546;6.912;2022-07-31T13:39:33;5.72;;;3.20;;
13651;SDS011;6899;51.546;6.912;2022-07-31T13:42:00;3.42;;;2.83;;
13651;SDS011;6899;51.546;6.912;2022-07-31T13:44:27;4.53;;;2.78;;
13651;SDS011;6899;51.546;6.912;2022-07-31T13:46:54;4.32;;;2.90;;
13651;SDS011;6899;51.546;6.912;2022-07-31T13:49:21;3.63;;;2.90;;
13651;SDS011;6899;51.546;6.912;2022-07-31T13:51:54;3.70;;;3.40;;
13651;SDS011;6899;51.546;6.912;2022-07-31T13:54:21;3.15;;;2.95;;
13651;SDS011;6899;51.546;6.912;2022-07-31T13:56:48;2.80;;;2.50;;
13651;SDS011;6899;51.546;6.912;2022-07-31T13:59:15;3.15;;;2.85;;
13651;SDS011;6899;51.546;6.912;2022-07-31T14:01:42;3.30;;;2.97;;
13651;SDS011;6899;51.546;6.912;2022-07-31T14:04:10;3.47;;;2.83;;
13651;SDS011;6899;51.546;6.912;2022-07-31T14:06:37;3.65;;;2.70;;
13651;SDS011;6899;51.546;6.912;2022-07-31T14:09:06;3.15;;;2.83;;
13651;SDS011;6899;51.546;6.912;2022-07-31T14:11:33;3.42;;;3.13;;
13651;SDS011;6899;51.546;6.912;2022-07-31T14:14:00;2.83;;;2.60;;
13651;SDS011;6899;51.546;6.912;2022-07-31T14:16:27;4.15;;;2.90;;
13651;SDS011;6899;51.546;6.912;2022-07-31T14:18:53;4.20;;;2.72;;
13651;SDS011;6899;51.546;6.912;2022-07-31T14:21:21;4.60;;;3.20;;
13651;SDS011;6899;51.546;6.912;2022-07-31T14:23:48;3.40;;;2.70;;
13651;SDS011;6899;51.546;6.912;2022-07-31T14:26:16;3.55;;;3.00;;
13651;SDS011;6899;51.546;6.912;2022-07-31T14:28:43;4.13;;;3.10;;
13651;SDS011;6899;51.546;6.912;2022-07-31T14:31:10;3.90;;;3.60;;
13651;SDS011;6899;51.546;6.912;2022-07-31T14:33:39;5.75;;;3.65;;
13651;SDS011;6899;51.546;6.912;2022-07-31T14:36:06;4.80;;;3.08;;
13651;SDS011;6899;51.546;6.912;2022-07-31T14:38:33;4.78;;;3.50;;
13651;SDS011;6899;51.546;6.912;2022-07-31T14:41:00;3.30;;;3.00;;
13651;SDS011;6899;51.546;6.912;2022-07-31T14:43:29;4.80;;;3.40;;
13651;SDS011;6899;51.546;6.912;2022-07-31T14:45:56;4.00;;;3.17;;
13651;SDS011;6899;51.546;6.912;2022-07-31T14:48:22;6.25;;;3.40;;
13651;SDS011;6899;51.546;6.912;2022-07-31T14:50:51;5.47;;;3.83;;
13651;SDS011;6899;51.546;6.912;2022-07-31T14:53:18;3.75;;;3.28;;
13651;SDS011;6899;51.546;6.912;2022-07-31T14:55:44;4.32;;;3.10;;
13651;SDS011;6899;51.546;6.912;2022-07-31T14:58:11;5.97;;;3.47;;
13651;SDS011;6899;51.546;6.912;2022-07-31T15:00:40;5.22;;;3.15;;
13651;SDS011;6899;51.546;6.912;2022-07-31T15:03:07;3.85;;;3.20;;
13651;SDS011;6899;51.546;6.912;2022-07-31T15:05:33;4.32;;;3.05;;
13651;SDS011;6899;51.546;6.912;2022-07-31T15:08:01;5.78;;;3.42;;
13651;SDS011;6899;51.546;6.912;2022-07-31T15:10:28;4.22;;;3.33;;
13651;SDS011;6899;51.546;6.912;2022-07-31T15:12:55;4.80;;;3.20;;
13651;SDS011;6899;51.546;6.912;2022-07-31T15:15:21;4.05;;;3.00;;
13651;SDS011;6899;51.546;6.912;2022-07-31T15:17:50;5.00;;;3.30;;
13651;SDS011;6899;51.546;6.912;2022-07-31T15:20:17;5.30;;;3.00;;